Time;durP1;ratioP1;P1;durP2;ratioP2;P2;SDS_P1;SDS_P2;PMS_P1;PMS_P2;Temp;Humidity;BMP_temperature;BMP_pressure;BME280_temperature;BME280_humidity;BME280_pressure;Samples;Min_cycle;Max_cycle;Signal;HPM_P1;HPM_P2
2023/07/27 00:02:04;;;;;;;5.43;2.40;;;;;;;;;;5008725;28;20029;-63
2023/07/27 00:04:29;;;;;;;3.22;2.10;;;;;;;;;;5003214;28;20038;-63
2023/07/27 00:06:55;;;;;;;3.13;1.85;;;;;;;;;;5003667;28;20124;-64
2023/07/27 00:09:20;;;;;;;5.25;2.80;;;;;;;;;;4989259;28;20045;-63
2023/07/27 00:11:45;;;;;;;3.22;1.40;;;;;;;;;;4995942;28;20045;-63
2023/07/27 00:14:11;;;;;;;3.78;1.90;;;;;;;;;;5004071;28;20458;-63
2023/07/27 00:16:36;;;;;;;3.15;2.15;;;;;;;;;;5003270;28;20033;-63
2023/07/27 00:19:02;;;;;;;2.50;2.00;;;;;;;;;;5008433;28;20037;-63
2023/07/27 00:21:27;;;;;;;3.45;1.80;;;;;;;;;;4997448;28;20041;-63
2023/07/27 00:23:53;;;;;;;3.33;1.77;;;;;;;;;;4985150;28;20072;-63
2023/07/27 00:26:18;;;;;;;2.47;1.70;;;;;;;;;;4988790;28;20353;-63
2023/07/27 00:28:43;;;;;;;3.10;2.00;;;;;;;;;;5003804;28;20700;-64
2023/07/27 00:31:09;;;;;;;3.20;2.25;;;;;;;;;;5002635;28;20042;-63
2023/07/27 00:33:34;;;;;;;3.33;2.13;;;;;;;;;;4992700;28;20049;-63
2023/07/27 00:36:00;;;;;;;3.30;2.03;;;;;;;;;;5002251;28;20437;-63
2023/07/27 00:38:27;;;;;;;3.35;1.98;;;;;;;;;;4990329;28;20055;-63
2023/07/27 00:40:52;;;;;;;3.92;2.28;;;;;;;;;;4998379;28;20116;-63
2023/07/27 00:43:18;;;;;;;3.38;2.00;;;;;;;;;;4997586;28;20042;-63
2023/07/27 00:45:43;;;;;;;2.70;2.20;;;;;;;;;;5002265;28;20165;-63
2023/07/27 00:48:09;;;;;;;3.85;2.33;;;;;;;;;;5006177;28;20025;-63
2023/07/27 00:50:35;;;;;;;3.33;2.28;;;;;;;;;;4994445;28;20065;-63
2023/07/27 00:53:06;;;;;;;3.22;2.10;;;;;;;;;;4999346;28;20044;-63
2023/07/27 00:55:32;;;;;;;2.95;2.05;;;;;;;;;;4989187;28;20088;-63
2023/07/27 00:57:58;;;;;;;2.63;1.70;;;;;;;;;;4988197;28;20053;-63
2023/07/27 01:00:25;;;;;;;2.95;1.90;;;;;;;;;;5007230;28;20042;-63
2023/07/27 01:02:50;;;;;;;2.97;2.03;;;;;;;;;;5007576;28;20139;-63
2023/07/27 01:05:16;;;;;;;3.72;2.15;;;;;;;;;;4991447;28;20034;-63
2023/07/27 01:07:42;;;;;;;4.03;2.10;;;;;;;;;;4998802;28;20069;-63
2023/07/27 01:10:07;;;;;;;2.45;1.42;;;;;;;;;;4999792;28;20061;-63
2023/07/27 01:12:48;;;;;;;3.33;2.00;;;;;;;;;;5009787;28;20094;-63
2023/07/27 01:15:18;;;;;;;4.43;2.10;;;;;;;;;;5000219;28;20030;-63
2023/07/27 01:18:10;;;;;;;2.75;2.10;;;;;;;;;;4986612;28;20034;-63
2023/07/27 01:20:46;;;;;;;2.75;2.00;;;;;;;;;;5007480;28;20107;-63
2023/07/27 01:23:33;;;;;;;3.13;2.20;;;;;;;;;;5002824;28;20034;-63
2023/07/27 01:26:24;;;;;;;3.78;2.15;;;;;;;;;;4989137;28;20071;-62
2023/07/27 01:29:08;;;;;;;;;;;;;;;;;;4997936;28;20052;-63
2023/07/27 01:31:43;;;;;;;3.60;2.05;;;;;;;;;;5001112;28;19995;-63
2023/07/27 01:34:27;;;;;;;3.25;1.95;;;;;;;;;;4995176;28;20076;-63
2023/07/27 01:36:59;;;;;;;2.80;2.05;;;;;;;;;;5001866;28;20464;-62
2023/07/27 01:39:26;;;;;;;3.53;2.17;;;;;;;;;;4995636;28;20121;-63
2023/07/27 01:41:53;;;;;;;3.95;2.13;;;;;;;;;;5003728;28;20046;-63
2023/07/27 01:44:23;;;;;;;4.28;2.33;;;;;;;;;;5009040;28;20042;-62
2023/07/27 01:46:51;;;;;;;4.05;2.22;;;;;;;;;;4977979;28;20051;-62
2023/07/27 01:49:17;;;;;;;4.55;2.25;;;;;;;;;;5000238;28;20038;-62
2023/07/27 01:51:44;;;;;;;3.60;2.55;;;;;;;;;;4999417;28;20069;-62
2023/07/27 01:54:10;;;;;;;3.47;2.25;;;;;;;;;;5000180;28;20030;-62
2023/07/27 01:56:36;;;;;;;4.82;2.65;;;;;;;;;;5007196;28;20624;-63
2023/07/27 01:59:02;;;;;;;3.75;2.17;;;;;;;;;;4993227;28;20045;-63
2023/07/27 02:01:28;;;;;;;3.45;2.28;;;;;;;;;;5007425;28;20489;-63
2023/07/27 02:03:53;;;;;;;4.97;2.53;;;;;;;;;;5000780;28;20050;-63
2023/07/27 02:06:19;;;;;;;3.28;2.08;;;;;;;;;;5002924;28;20057;-63
2023/07/27 02:08:44;;;;;;;3.40;2.20;;;;;;;;;;5003979;28;20153;-63
2023/07/27 02:11:12;;;;;;;3.60;1.60;;;;;;;;;;4999315;28;20568;-63
2023/07/27 02:14:04;;;;;;;9.95;2.47;;;;;;;;;;4989870;28;20029;-63
2023/07/27 02:16:54;;;;;;;3.15;1.90;;;;;;;;;;5006843;28;20045;-63
2023/07/27 02:19:26;;;;;;;3.05;1.85;;;;;;;;;;5005787;28;20578;-63
2023/07/27 02:21:54;;;;;;;3.60;2.60;;;;;;;;;;4971674;28;20042;-63
2023/07/27 02:24:20;;;;;;;2.80;1.80;;;;;;;;;;4999188;28;20044;-63
2023/07/27 02:26:46;;;;;;;4.10;3.00;;;;;;;;;;5006821;28;20049;-63
2023/07/27 02:29:11;;;;;;;4.30;1.85;;;;;;;;;;5003202;28;20075;-62
2023/07/27 02:31:37;;;;;;;4.15;2.80;;;;;;;;;;4991472;28;20441;-63
2023/07/27 02:34:02;;;;;;;3.40;1.90;;;;;;;;;;4996861;28;20038;-63
2023/07/27 02:36:27;;;;;;;4.90;2.30;;;;;;;;;;4976713;28;20071;-62
2023/07/27 02:38:53;;;;;;;2.65;2.10;;;;;;;;;;4999173;28;20041;-63
2023/07/27 02:41:18;;;;;;;3.40;2.00;;;;;;;;;;4999224;28;20034;-63
2023/07/27 02:43:43;;;;;;;4.13;1.95;;;;;;;;;;4995227;28;20041;-63
2023/07/27 02:46:09;;;;;;;3.67;1.80;;;;;;;;;;4999022;28;20064;-63
2023/07/27 02:48:35;;;;;;;3.63;2.38;;;;;;;;;;4987057;28;20097;-63
2023/07/27 02:51:00;;;;;;;2.88;2.10;;;;;;;;;;4992060;28;20038;-63
2023/07/27 02:53:25;;;;;;;3.58;1.80;;;;;;;;;;4997988;28;20033;-63
2023/07/27 02:55:58;;;;;;;3.85;1.92;;;;;;;;;;4996473;28;20057;-63
2023/07/27 02:58:24;;;;;;;4.35;2.42;;;;;;;;;;5007505;28;20150;-63
2023/07/27 03:00:54;;;;;;;4.03;1.98;;;;;;;;;;5006162;28;20077;-63
2023/07/27 03:03:20;;;;;;;4.13;2.10;;;;;;;;;;4988347;28;20060;-63
2023/07/27 03:05:46;;;;;;;3.22;2.08;;;;;;;;;;4996147;28;20033;-63
2023/07/27 03:08:11;;;;;;;4.20;2.20;;;;;;;;;;4998693;28;20120;-63
2023/07/27 03:10:38;;;;;;;5.13;2.15;;;;;;;;;;5005928;28;20033;-63
2023/07/27 03:13:03;;;;;;;3.63;2.13;;;;;;;;;;4993002;28;20037;-63
2023/07/27 03:15:28;;;;;;;3.17;2.08;;;;;;;;;;5005220;28;20038;-62
2023/07/27 03:17:54;;;;;;;5.05;2.42;;;;;;;;;;4990899;28;20466;-62
2023/07/27 03:20:19;;;;;;;2.97;1.50;;;;;;;;;;4998642;28;20037;-63
2023/07/27 03:22:44;;;;;;;2.63;1.50;;;;;;;;;;4998315;28;20038;-63
2023/07/27 03:25:10;;;;;;;3.35;2.25;;;;;;;;;;5004978;28;20132;-63
2023/07/27 03:27:35;;;;;;;3.22;2.17;;;;;;;;;;5003389;28;20037;-64
2023/07/27 03:30:01;;;;;;;1.80;1.45;;;;;;;;;;5005704;28;20045;-63
2023/07/27 03:32:26;;;;;;;3.30;1.77;;;;;;;;;;4991479;28;20235;-63
2023/07/27 03:34:51;;;;;;;3.40;2.17;;;;;;;;;;5000597;28;20041;-63
2023/07/27 03:37:16;;;;;;;3.17;1.77;;;;;;;;;;4999661;28;20514;-63
2023/07/27 03:39:42;;;;;;;4.40;2.33;;;;;;;;;;4995919;28;20414;-63
2023/07/27 03:42:07;;;;;;;3.67;2.10;;;;;;;;;;4999614;28;20049;-62
2023/07/27 03:44:33;;;;;;;3.65;2.03;;;;;;;;;;5008523;28;20052;-63
2023/07/27 03:46:58;;;;;;;2.92;2.20;;;;;;;;;;4993825;28;20046;-63
2023/07/27 03:49:23;;;;;;;3.00;2.17;;;;;;;;;;4997668;28;20530;-63
2023/07/27 03:51:49;;;;;;;3.17;1.83;;;;;;;;;;4997322;28;20069;-63
2023/07/27 03:54:14;;;;;;;3.72;2.30;;;;;;;;;;4998261;28;20128;-63
2023/07/27 03:56:39;;;;;;;2.15;1.60;;;;;;;;;;5002124;28;20041;-63
2023/07/27 03:59:05;;;;;;;3.22;1.73;;;;;;;;;;5005318;28;20064;-63
2023/07/27 04:01:30;;;;;;;2.95;1.60;;;;;;;;;;4992851;28;20068;-63
2023/07/27 04:03:55;;;;;;;3.78;2.15;;;;;;;;;;4996505;28;20081;-63
2023/07/27 04:06:21;;;;;;;2.42;1.65;;;;;;;;;;4998014;28;20565;-63
2023/07/27 04:08:48;;;;;;;2.53;1.73;;;;;;;;;;5005929;28;20084;-63
2023/07/27 04:11:13;;;;;;;2.95;2.13;;;;;;;;;;4998340;28;20048;-63
2023/07/27 04:13:38;;;;;;;3.45;1.88;;;;;;;;;;4984386;28;20037;-63
2023/07/27 04:16:05;;;;;;;2.55;1.77;;;;;;;;;;5004701;28;20038;-63
2023/07/27 04:18:30;;;;;;;4.55;2.22;;;;;;;;;;4999129;28;20038;-64
2023/07/27 04:20:56;;;;;;;3.60;2.25;;;;;;;;;;4998097;28;20099;-63
2023/07/27 04:23:21;;;;;;;3.25;1.90;;;;;;;;;;4994808;28;20089;-63
2023/07/27 04:25:46;;;;;;;2.40;1.40;;;;;;;;;;5002665;28;20030;-63
2023/07/27 04:28:12;;;;;;;3.10;2.05;;;;;;;;;;4993942;28;20552;-62
2023/07/27 04:30:37;;;;;;;2.38;1.55;;;;;;;;;;5004321;28;20674;-63
2023/07/27 04:33:02;;;;;;;3.42;1.98;;;;;;;;;;4999142;28;20029;-62
2023/07/27 04:35:28;;;;;;;3.10;1.75;;;;;;;;;;4982226;28;20038;-63
2023/07/27 04:37:53;;;;;;;3.92;2.35;;;;;;;;;;5004951;28;20060;-64
2023/07/27 04:40:19;;;;;;;2.22;1.48;;;;;;;;;;5007886;28;20053;-63
2023/07/27 04:42:44;;;;;;;4.13;2.80;;;;;;;;;;4995808;28;20072;-63
2023/07/27 04:45:10;;;;;;;3.60;2.00;;;;;;;;;;5001907;28;20034;-63
2023/07/27 04:47:36;;;;;;;4.60;1.85;;;;;;;;;;5000597;28;20034;-63
2023/07/27 04:50:03;;;;;;;3.85;2.28;;;;;;;;;;4996247;28;20036;-63
2023/07/27 04:52:29;;;;;;;2.88;1.60;;;;;;;;;;4999637;28;20033;-63
2023/07/27 04:54:54;;;;;;;2.97;2.00;;;;;;;;;;4996983;28;20092;-63
2023/07/27 04:57:19;;;;;;;2.65;1.65;;;;;;;;;;4992053;28;20037;-63
2023/07/27 04:59:45;;;;;;;2.25;1.40;;;;;;;;;;5005500;28;20462;-63
2023/07/27 05:02:10;;;;;;;3.55;1.90;;;;;;;;;;5002861;28;20048;-61
2023/07/27 05:04:35;;;;;;;3.20;1.73;;;;;;;;;;4996918;28;20404;-64
2023/07/27 05:07:01;;;;;;;3.17;1.67;;;;;;;;;;4997182;28;20147;-63
2023/07/27 05:09:26;;;;;;;1.55;1.20;;;;;;;;;;5003925;28;20085;-63
2023/07/27 05:11:51;;;;;;;2.97;1.85;;;;;;;;;;4985307;28;20042;-63
2023/07/27 05:14:17;;;;;;;2.65;1.55;;;;;;;;;;4999272;28;20042;-64
2023/07/27 05:16:43;;;;;;;2.65;1.70;;;;;;;;;;5011770;28;20952;-64
2023/07/27 05:19:08;;;;;;;2.58;1.58;;;;;;;;;;5004160;28;20030;-64
2023/07/27 05:21:34;;;;;;;2.80;1.73;;;;;;;;;;5007240;28;20500;-64
2023/07/27 05:23:59;;;;;;;3.65;2.00;;;;;;;;;;5002485;28;20092;-63
2023/07/27 05:26:24;;;;;;;4.32;1.70;;;;;;;;;;5012295;28;20064;-63
2023/07/27 05:28:50;;;;;;;8.68;2.00;;;;;;;;;;5013594;28;20044;-62
2023/07/27 05:31:15;;;;;;;4.15;2.47;;;;;;;;;;5011972;28;20068;-63
2023/07/27 05:33:40;;;;;;;3.47;2.20;;;;;;;;;;5006842;28;20119;-64
2023/07/27 05:36:06;;;;;;;3.55;1.65;;;;;;;;;;5012342;28;20033;-63
2023/07/27 05:38:31;;;;;;;3.22;1.92;;;;;;;;;;5010185;28;20029;-63
2023/07/27 05:41:00;;;;;;;3.13;2.00;;;;;;;;;;5006210;28;20121;-63
2023/07/27 05:43:26;;;;;;;4.35;2.13;;;;;;;;;;5016965;28;20037;-63
2023/07/27 05:45:51;;;;;;;4.30;2.10;;;;;;;;;;5016338;28;20073;-63
2023/07/27 05:48:16;;;;;;;3.13;1.85;;;;;;;;;;4993896;28;20038;-64
2023/07/27 05:50:42;;;;;;;4.45;2.08;;;;;;;;;;4990187;28;20126;-63
2023/07/27 05:53:07;;;;;;;3.78;1.98;;;;;;;;;;4990708;28;20041;-63
2023/07/27 05:55:33;;;;;;;3.70;2.00;;;;;;;;;;4981512;28;20026;-61
2023/07/27 05:57:58;;;;;;;1.92;1.35;;;;;;;;;;5007715;28;20507;-62
2023/07/27 06:00:23;;;;;;;3.42;2.40;;;;;;;;;;4995042;28;20026;-63
2023/07/27 06:02:49;;;;;;;2.92;2.00;;;;;;;;;;4992804;28;20037;-63
2023/07/27 06:05:14;;;;;;;2.50;1.50;;;;;;;;;;4995724;28;20029;-64
2023/07/27 06:07:39;;;;;;;3.50;2.15;;;;;;;;;;4998190;28;20032;-63
2023/07/27 06:10:05;;;;;;;3.50;2.00;;;;;;;;;;4997310;28;20026;-64
2023/07/27 06:12:30;;;;;;;5.20;2.33;;;;;;;;;;4996600;28;20848;-63
2023/07/27 06:14:57;;;;;;;5.00;2.17;;;;;;;;;;5003995;28;20061;-63
2023/07/27 06:17:22;;;;;;;4.85;2.25;;;;;;;;;;4992978;28;20065;-63
2023/07/27 06:19:48;;;;;;;3.45;2.50;;;;;;;;;;4993043;28;20383;-63
2023/07/27 06:22:13;;;;;;;2.47;1.58;;;;;;;;;;4996328;28;20030;-63
2023/07/27 06:24:39;;;;;;;2.42;1.70;;;;;;;;;;4988559;28;20029;-64
2023/07/27 06:27:05;;;;;;;3.92;1.92;;;;;;;;;;4994618;28;20239;-63
2023/07/27 06:29:30;;;;;;;2.28;1.80;;;;;;;;;;4994240;28;20037;-64
2023/07/27 06:31:56;;;;;;;5.20;1.85;;;;;;;;;;4992302;28;20042;-64
2023/07/27 06:34:21;;;;;;;3.45;2.00;;;;;;;;;;4987177;28;20023;-64
2023/07/27 06:36:47;;;;;;;3.25;1.80;;;;;;;;;;4990791;28;20030;-64
2023/07/27 06:39:12;;;;;;;3.55;2.20;;;;;;;;;;5002043;28;20021;-63
2023/07/27 06:41:38;;;;;;;2.28;1.50;;;;;;;;;;4990409;28;20033;-64
2023/07/27 06:44:03;;;;;;;3.35;1.75;;;;;;;;;;4993155;28;20093;-62
2023/07/27 06:46:29;;;;;;;3.15;2.03;;;;;;;;;;4991352;28;20463;-64
2023/07/27 06:48:54;;;;;;;2.63;1.90;;;;;;;;;;4988067;28;20017;-64
2023/07/27 06:51:19;;;;;;;4.10;2.40;;;;;;;;;;4998740;28;20040;-64
2023/07/27 06:53:45;;;;;;;4.85;2.28;;;;;;;;;;4999649;28;20667;-64
2023/07/27 06:56:11;;;;;;;2.80;1.63;;;;;;;;;;4992769;28;20030;-63
2023/07/27 06:58:36;;;;;;;4.18;1.63;;;;;;;;;;4988727;28;20411;-63
2023/07/27 07:01:02;;;;;;;4.03;2.30;;;;;;;;;;4991880;28;20041;-63
2023/07/27 07:03:27;;;;;;;6.00;2.15;;;;;;;;;;4993404;28;20175;-64
2023/07/27 07:05:55;;;;;;;2.35;1.45;;;;;;;;;;4996346;28;20032;-64
2023/07/27 07:08:21;;;;;;;5.93;2.40;;;;;;;;;;4988451;28;20014;-61
2023/07/27 07:10:46;;;;;;;2.58;1.60;;;;;;;;;;4992076;28;20492;-64
2023/07/27 07:13:12;;;;;;;4.63;2.15;;;;;;;;;;5003432;28;20080;-63
2023/07/27 07:15:37;;;;;;;2.15;1.42;;;;;;;;;;4995231;28;20044;-61
2023/07/27 07:18:02;;;;;;;0.88;0.73;;;;;;;;;;4987600;28;20022;-64
2023/07/27 07:20:28;;;;;;;4.38;1.85;;;;;;;;;;4991088;28;20549;-64
2023/07/27 07:22:53;;;;;;;4.85;2.50;;;;;;;;;;4996716;28;20029;-65
2023/07/27 07:25:19;;;;;;;4.18;2.67;;;;;;;;;;4999397;28;20030;-63
2023/07/27 07:27:44;;;;;;;1.92;1.27;;;;;;;;;;5001708;28;20022;-64
2023/07/27 07:30:10;;;;;;;2.50;1.77;;;;;;;;;;4989489;28;20064;-64
2023/07/27 07:32:35;;;;;;;3.90;2.60;;;;;;;;;;4996111;28;20037;-63
2023/07/27 07:35:01;;;;;;;4.28;2.50;;;;;;;;;;4996231;28;20542;-64
2023/07/27 07:37:27;;;;;;;3.40;2.33;;;;;;;;;;5000836;28;20030;-64
2023/07/27 07:39:52;;;;;;;3.20;1.95;;;;;;;;;;4999654;28;20465;-63
2023/07/27 07:42:17;;;;;;;2.25;1.30;;;;;;;;;;4988168;28;20029;-64
2023/07/27 07:44:43;;;;;;;4.55;2.35;;;;;;;;;;4991861;28;20034;-64
2023/07/27 07:47:08;;;;;;;3.03;2.28;;;;;;;;;;4993680;28;20037;-64
2023/07/27 07:49:34;;;;;;;3.13;2.20;;;;;;;;;;4995042;28;20029;-65
2023/07/27 07:51:59;;;;;;;2.47;1.67;;;;;;;;;;4988274;28;20032;-65
2023/07/27 07:54:28;;;;;;;3.95;2.83;;;;;;;;;;4989225;28;20026;-65
2023/07/27 07:56:54;;;;;;;3.60;2.17;;;;;;;;;;4992151;28;20034;-65
2023/07/27 07:59:20;;;;;;;5.55;2.90;;;;;;;;;;4990958;28;20078;-65
2023/07/27 08:01:45;;;;;;;2.85;1.55;;;;;;;;;;4991597;28;20058;-65
2023/07/27 08:04:11;;;;;;;3.50;2.53;;;;;;;;;;4986640;28;20525;-65
2023/07/27 08:06:36;;;;;;;3.92;2.10;;;;;;;;;;4994260;28;20021;-65
2023/07/27 08:09:01;;;;;;;2.85;2.10;;;;;;;;;;4993800;28;20026;-65
2023/07/27 08:11:27;;;;;;;3.53;2.65;;;;;;;;;;4994169;28;20025;-65
2023/07/27 08:13:52;;;;;;;3.88;2.40;;;;;;;;;;4987134;28;20458;-65
2023/07/27 08:16:18;;;;;;;6.00;2.67;;;;;;;;;;4986802;28;20068;-65
2023/07/27 08:18:44;;;;;;;4.35;2.40;;;;;;;;;;4995414;28;20490;-64
2023/07/27 08:21:10;;;;;;;4.70;2.33;;;;;;;;;;4996493;28;20026;-64
2023/07/27 08:23:35;;;;;;;3.65;2.58;;;;;;;;;;4998560;28;20084;-64
2023/07/27 08:26:03;;;;;;;3.60;2.35;;;;;;;;;;4986565;28;20145;-64
2023/07/27 08:28:28;;;;;;;2.45;1.58;;;;;;;;;;4987475;28;20018;-64
2023/07/27 08:30:53;;;;;;;5.35;2.60;;;;;;;;;;4992576;28;20812;-64
2023/07/27 08:33:19;;;;;;;4.72;2.80;;;;;;;;;;4995072;28;20072;-64
2023/07/27 08:35:45;;;;;;;3.55;2.50;;;;;;;;;;4987495;28;20487;-63
2023/07/27 08:38:10;;;;;;;2.75;1.65;;;;;;;;;;4988873;28;20022;-64
2023/07/27 08:40:36;;;;;;;6.25;2.40;;;;;;;;;;4992463;28;20022;-64
2023/07/27 08:43:07;;;;;;;1.95;1.33;;;;;;;;;;4991221;28;20023;-65
2023/07/27 08:45:33;;;;;;;3.75;2.58;;;;;;;;;;4988919;28;20034;-66
2023/07/27 08:47:59;;;;;;;1.83;0.93;;;;;;;;;;4987206;28;20019;-65
2023/07/27 08:50:25;;;;;;;3.33;2.30;;;;;;;;;;4998402;28;20045;-64
2023/07/27 08:52:50;;;;;;;4.20;2.47;;;;;;;;;;4981550;28;20034;-64
2023/07/27 08:55:16;;;;;;;3.65;2.47;;;;;;;;;;4995884;28;20064;-64
2023/07/27 08:57:42;;;;;;;1.08;0.90;;;;;;;;;;4991649;28;20027;-65
2023/07/27 09:00:09;;;;;;;3.75;2.50;;;;;;;;;;4987837;28;20030;-65
2023/07/27 09:02:35;;;;;;;3.45;2.30;;;;;;;;;;4994033;28;20033;-65
2023/07/27 09:05:00;;;;;;;4.45;2.42;;;;;;;;;;4987739;28;20026;-65
2023/07/27 09:07:26;;;;;;;5.90;2.58;;;;;;;;;;4994187;28;20080;-66
2023/07/27 09:09:53;;;;;;;3.70;2.20;;;;;;;;;;5001732;28;20033;-66
2023/07/27 09:12:21;;;;;;;3.05;2.25;;;;;;;;;;4990331;28;20018;-66
2023/07/27 09:14:47;;;;;;;1.77;1.25;;;;;;;;;;4988504;28;20150;-66
2023/07/27 09:17:12;;;;;;;1.70;1.10;;;;;;;;;;4991387;28;20081;-66
2023/07/27 09:19:40;;;;;;;3.20;2.20;;;;;;;;;;4988322;28;20022;-67
2023/07/27 09:22:07;;;;;;;4.25;2.45;;;;;;;;;;4988101;28;20407;-67
2023/07/27 09:24:33;;;;;;;4.05;2.50;;;;;;;;;;4999775;28;20098;-67
2023/07/27 09:26:59;;;;;;;3.92;2.92;;;;;;;;;;4996814;28;20612;-66
2023/07/27 09:29:24;;;;;;;2.63;2.03;;;;;;;;;;4986774;28;20027;-66
2023/07/27 09:31:52;;;;;;;2.03;1.55;;;;;;;;;;4992320;28;20521;-66
2023/07/27 09:34:19;;;;;;;3.60;1.73;;;;;;;;;;4992939;28;20605;-66
2023/07/27 09:36:45;;;;;;;3.42;1.30;;;;;;;;;;4995008;28;20057;-65
2023/07/27 09:39:11;;;;;;;3.25;2.22;;;;;;;;;;4994223;28;20037;-65
2023/07/27 09:41:37;;;;;;;3.40;2.25;;;;;;;;;;4995648;28;20113;-65
2023/07/27 09:44:03;;;;;;;1.80;1.27;;;;;;;;;;4991094;28;20018;-65
2023/07/27 09:46:29;;;;;;;2.78;2.08;;;;;;;;;;4992574;28;20042;-65
2023/07/27 09:48:58;;;;;;;4.28;2.42;;;;;;;;;;4990832;28;20038;-65
2023/07/27 09:51:27;;;;;;;2.88;1.48;;;;;;;;;;4990131;28;20022;-65
2023/07/27 09:53:53;;;;;;;2.67;1.98;;;;;;;;;;4993597;28;20030;-66
2023/07/27 09:56:19;;;;;;;4.43;2.97;;;;;;;;;;4995766;28;20036;-67
2023/07/27 09:58:46;;;;;;;1.00;0.90;;;;;;;;;;4990601;28;20054;-66
2023/07/27 10:01:11;;;;;;;1.40;1.30;;;;;;;;;;4992550;28;20069;-66
2023/07/27 10:03:37;;;;;;;2.10;1.48;;;;;;;;;;4987691;28;20062;-66
2023/07/27 10:06:03;;;;;;;1.88;1.67;;;;;;;;;;4991377;28;20027;-66
2023/07/27 10:08:28;;;;;;;5.82;3.10;;;;;;;;;;4996165;28;20029;-65
2023/07/27 10:10:55;;;;;;;2.70;1.73;;;;;;;;;;4995451;28;20076;-66
2023/07/27 10:13:23;;;;;;;5.05;3.05;;;;;;;;;;4990404;28;20022;-66
2023/07/27 10:15:51;;;;;;;2.30;1.52;;;;;;;;;;4992721;28;20033;-67
2023/07/27 10:18:22;;;;;;;3.47;2.20;;;;;;;;;;4998244;28;20022;-67
2023/07/27 10:20:47;;;;;;;4.10;2.77;;;;;;;;;;5001924;28;20032;-66
2023/07/27 10:23:20;;;;;;;2.35;1.40;;;;;;;;;;4999509;28;20247;-67
2023/07/27 10:26:00;;;;;;;1.95;1.33;;;;;;;;;;4993313;28;20022;-66
2023/07/27 10:28:43;;;;;;;2.83;1.52;;;;;;;;;;4990447;28;20019;-67
2023/07/27 10:31:26;;;;;;;2.83;1.85;;;;;;;;;;4993977;28;20014;-66
2023/07/27 10:34:07;;;;;;;3.13;2.53;;;;;;;;;;4999232;28;20060;-66
2023/07/27 10:36:56;;;;;;;2.53;1.80;;;;;;;;;;4996061;28;20494;-67
2023/07/27 10:39:27;;;;;;;3.85;2.70;;;;;;;;;;4989366;28;20626;-66
2023/07/27 10:42:07;;;;;;;5.20;3.28;;;;;;;;;;4991770;28;20037;-66
2023/07/27 10:44:47;;;;;;;4.22;2.92;;;;;;;;;;4988101;28;20034;-66
2023/07/27 10:47:14;;;;;;;2.70;2.17;;;;;;;;;;4991753;28;20057;-66
2023/07/27 10:49:44;;;;;;;3.83;2.40;;;;;;;;;;4988308;28;20820;-66
2023/07/27 10:52:14;;;;;;;3.75;2.50;;;;;;;;;;4995555;28;20052;-67
2023/07/27 10:54:40;;;;;;;2.75;1.75;;;;;;;;;;4979895;28;20270;-67
2023/07/27 10:57:08;;;;;;;3.70;2.25;;;;;;;;;;4987475;28;20041;-67
2023/07/27 10:59:41;;;;;;;4.22;2.40;;;;;;;;;;4991416;28;20053;-67
2023/07/27 11:02:18;;;;;;;3.08;1.92;;;;;;;;;;4995808;28;20421;-67
2023/07/27 11:04:44;;;;;;;2.53;1.80;;;;;;;;;;4995003;28;20543;-67
2023/07/27 11:07:11;;;;;;;1.58;1.10;;;;;;;;;;4993208;28;20026;-66
2023/07/27 11:09:37;;;;;;;3.33;2.22;;;;;;;;;;5007869;28;20382;-66
2023/07/27 11:12:04;;;;;;;1.23;1.02;;;;;;;;;;4987844;28;20022;-66
2023/07/27 11:14:30;;;;;;;2.53;1.77;;;;;;;;;;4992263;28;20771;-67
2023/07/27 11:16:56;;;;;;;3.00;1.63;;;;;;;;;;4990591;28;20048;-67
2023/07/27 11:19:23;;;;;;;2.25;1.42;;;;;;;;;;4999072;28;20037;-66
2023/07/27 11:21:50;;;;;;;2.65;1.88;;;;;;;;;;4989086;28;20504;-66
2023/07/27 11:24:16;;;;;;;1.42;1.20;;;;;;;;;;4992881;28;20028;-66
2023/07/27 11:26:42;;;;;;;2.00;1.30;;;;;;;;;;4989984;28;20034;-66
2023/07/27 11:29:09;;;;;;;2.38;1.50;;;;;;;;;;4996680;28;20027;-66
2023/07/27 11:31:35;;;;;;;2.05;1.30;;;;;;;;;;4992191;28;20026;-65
2023/07/27 11:34:01;;;;;;;1.48;0.98;;;;;;;;;;4991119;28;20037;-65
2023/07/27 11:36:31;;;;;;;1.65;1.30;;;;;;;;;;4992244;28;20626;-65
2023/07/27 11:38:57;;;;;;;2.92;1.73;;;;;;;;;;4994496;28;20026;-65
2023/07/27 11:41:26;;;;;;;1.40;1.20;;;;;;;;;;4990054;28;20019;-65
2023/07/27 11:43:54;;;;;;;2.72;1.40;;;;;;;;;;4987564;28;20434;-65
2023/07/27 11:46:20;;;;;;;2.17;1.50;;;;;;;;;;4989147;28;20116;-66
2023/07/27 11:48:47;;;;;;;1.10;1.00;;;;;;;;;;4998807;28;20072;-67
2023/07/27 11:51:13;;;;;;;2.15;1.58;;;;;;;;;;4997429;28;20026;-68
2023/07/27 11:53:39;;;;;;;1.95;1.45;;;;;;;;;;4994039;28;20487;-67
2023/07/27 11:56:08;;;;;;;1.70;1.27;;;;;;;;;;4987316;28;20049;-67
2023/07/27 11:58:34;;;;;;;1.90;1.35;;;;;;;;;;4988631;28;20089;-67
2023/07/27 12:00:59;;;;;;;1.33;1.00;;;;;;;;;;4988585;28;20037;-66
2023/07/27 12:03:26;;;;;;;2.15;1.17;;;;;;;;;;4990380;28;20030;-67
2023/07/27 12:05:57;;;;;;;1.10;1.00;;;;;;;;;;4989276;28;20047;-68
2023/07/27 12:08:23;;;;;;;3.03;1.98;;;;;;;;;;4993653;28;20058;-68
2023/07/27 12:10:53;;;;;;;2.10;1.35;;;;;;;;;;4986152;28;20032;-68
2023/07/27 12:13:21;;;;;;;3.83;1.55;;;;;;;;;;4992914;28;20486;-68
2023/07/27 12:15:56;;;;;;;1.92;1.50;;;;;;;;;;4986573;28;20158;-67
2023/07/27 12:18:24;;;;;;;1.52;1.17;;;;;;;;;;4987998;28;20026;-68
2023/07/27 12:20:49;;;;;;;1.60;1.42;;;;;;;;;;4990502;28;20033;-66
2023/07/27 12:23:15;;;;;;;2.80;1.10;;;;;;;;;;4991968;28;20493;-66
2023/07/27 12:25:40;;;;;;;2.10;1.40;;;;;;;;;;4988338;28;20031;-66
2023/07/27 12:28:07;;;;;;;1.08;0.98;;;;;;;;;;4987789;28;20022;-66
2023/07/27 12:30:33;;;;;;;2.65;1.40;;;;;;;;;;4981683;28;20030;-66
2023/07/27 12:33:00;;;;;;;1.35;1.20;;;;;;;;;;4986463;28;20034;-67
2023/07/27 12:35:27;;;;;;;1.52;1.13;;;;;;;;;;4988669;28;20031;-66
2023/07/27 12:37:52;;;;;;;1.55;1.30;;;;;;;;;;4986343;28;20038;-66
2023/07/27 12:40:19;;;;;;;1.83;1.38;;;;;;;;;;4983122;28;20029;-66
2023/07/27 12:42:45;;;;;;;1.42;0.90;;;;;;;;;;4990860;28;20030;-66
2023/07/27 12:45:10;;;;;;;1.23;1.00;;;;;;;;;;4987321;28;20033;-66
2023/07/27 12:47:36;;;;;;;1.50;1.05;;;;;;;;;;4987386;28;20057;-67
2023/07/27 12:50:02;;;;;;;1.60;1.23;;;;;;;;;;4987690;28;20406;-66
2023/07/27 12:52:28;;;;;;;1.73;1.00;;;;;;;;;;4985915;28;20109;-66
2023/07/27 12:54:54;;;;;;;0.57;0.57;;;;;;;;;;4988172;28;20432;-66
2023/07/27 12:57:19;;;;;;;1.27;0.90;;;;;;;;;;4991077;28;20035;-66
2023/07/27 12:59:45;;;;;;;1.73;1.25;;;;;;;;;;4991233;28;20029;-65
2023/07/27 13:02:11;;;;;;;0.95;0.82;;;;;;;;;;4989581;28;20200;-65
2023/07/27 13:04:36;;;;;;;1.58;1.02;;;;;;;;;;4994802;28;20101;-65
2023/07/27 13:07:01;;;;;;;1.30;1.00;;;;;;;;;;4993342;28;20025;-65
2023/07/27 13:09:27;;;;;;;1.52;1.00;;;;;;;;;;4990841;28;20014;-65
2023/07/27 13:11:52;;;;;;;0.88;0.70;;;;;;;;;;4991726;28;20057;-65
2023/07/27 13:14:19;;;;;;;0.95;0.75;;;;;;;;;;4994040;28;20029;-66
2023/07/27 13:16:45;;;;;;;1.08;0.98;;;;;;;;;;5000799;28;20033;-66
2023/07/27 13:19:10;;;;;;;1.13;0.90;;;;;;;;;;4997163;28;20025;-66
2023/07/27 13:21:36;;;;;;;0.70;0.70;;;;;;;;;;4994022;28;20034;-66
2023/07/27 13:24:02;;;;;;;1.42;0.80;;;;;;;;;;4990879;28;20034;-66
2023/07/27 13:26:28;;;;;;;1.77;0.85;;;;;;;;;;4991552;28;20026;-66
2023/07/27 13:28:54;;;;;;;1.13;0.60;;;;;;;;;;4994387;28;20221;-66
2023/07/27 13:31:22;;;;;;;1.33;0.88;;;;;;;;;;4997102;28;20057;-66
2023/07/27 13:33:48;;;;;;;1.63;0.80;;;;;;;;;;4989314;28;20073;-66
2023/07/27 13:36:13;;;;;;;0.70;0.70;;;;;;;;;;4994346;28;20464;-66
2023/07/27 13:38:39;;;;;;;0.77;0.68;;;;;;;;;;4991243;28;20642;-66
2023/07/27 13:41:04;;;;;;;0.93;0.68;;;;;;;;;;4988600;28;20149;-66
2023/07/27 13:43:30;;;;;;;1.15;0.80;;;;;;;;;;4987874;28;20068;-66
2023/07/27 13:45:56;;;;;;;0.85;0.57;;;;;;;;;;4993015;28;20040;-65
2023/07/27 13:48:22;;;;;;;1.45;0.60;;;;;;;;;;4989060;28;20042;-66
2023/07/27 13:50:48;;;;;;;2.08;0.65;;;;;;;;;;4993642;28;20752;-66
2023/07/27 13:53:14;;;;;;;0.73;0.73;;;;;;;;;;4989712;28;20237;-66
2023/07/27 13:55:39;;;;;;;1.02;0.60;;;;;;;;;;4991006;28;20022;-66
2023/07/27 13:58:05;;;;;;;1.10;0.90;;;;;;;;;;4994283;28;20446;-66
2023/07/27 14:00:31;;;;;;;0.90;0.60;;;;;;;;;;5000104;28;20021;-67
2023/07/27 14:02:56;;;;;;;0.63;0.60;;;;;;;;;;4996251;28;20022;-67
2023/07/27 14:05:21;;;;;;;0.65;0.60;;;;;;;;;;4991085;28;20022;-67
2023/07/27 14:07:47;;;;;;;0.52;0.50;;;;;;;;;;4990902;28;20122;-67
2023/07/27 14:10:13;;;;;;;1.33;0.40;;;;;;;;;;4994181;28;20038;-67
2023/07/27 14:12:38;;;;;;;0.40;0.40;;;;;;;;;;4986023;28;20038;-67
2023/07/27 14:15:04;;;;;;;0.70;0.50;;;;;;;;;;4989028;28;20025;-66
2023/07/27 14:17:30;;;;;;;0.60;0.60;;;;;;;;;;4991938;28;20422;-66
2023/07/27 14:19:56;;;;;;;0.95;0.50;;;;;;;;;;5000408;28;20038;-66
2023/07/27 14:22:22;;;;;;;0.63;0.40;;;;;;;;;;4992966;28;20030;-66
2023/07/27 14:24:47;;;;;;;0.47;0.35;;;;;;;;;;4991290;28;20164;-66
2023/07/27 14:27:13;;;;;;;0.40;0.38;;;;;;;;;;4989631;28;20546;-65
2023/07/27 14:29:38;;;;;;;0.45;0.45;;;;;;;;;;4995629;28;20021;-65
2023/07/27 14:32:04;;;;;;;0.50;0.50;;;;;;;;;;4995508;28;20026;-66
2023/07/27 14:34:31;;;;;;;0.95;0.50;;;;;;;;;;4990735;28;20034;-66
2023/07/27 14:36:56;;;;;;;0.80;0.47;;;;;;;;;;4992038;28;20026;-66
2023/07/27 14:39:22;;;;;;;0.68;0.50;;;;;;;;;;4991726;28;20018;-65
2023/07/27 14:41:48;;;;;;;2.50;0.82;;;;;;;;;;4993067;28;20471;-66